sensor_id;sensor_type;location;lat;lon;timestamp;P1;durP1;ratioP1;P2;durP2;ratioP2
61483;SDS011;47349;55.640;37.692;2023-04-03T00:00:05;13.07;;;7.57;;
61483;SDS011;47349;55.640;37.692;2023-04-03T00:02:42;12.77;;;8.25;;
61483;SDS011;47349;55.640;37.692;2023-04-03T00:08:04;13.30;;;7.60;;
61483;SDS011;47349;55.640;37.692;2023-04-03T00:10:38;11.88;;;8.50;;
61483;SDS011;47349;55.640;37.692;2023-04-03T00:13:19;12.35;;;7.57;;
61483;SDS011;47349;55.640;37.692;2023-04-03T00:16:03;10.93;;;7.70;;
61483;SDS011;47349;55.640;37.692;2023-04-03T00:18:34;12.48;;;7.55;;
61483;SDS011;47349;55.640;37.692;2023-04-03T00:21:05;11.63;;;8.23;;
61483;SDS011;47349;55.640;37.692;2023-04-03T00:23:59;12.45;;;8.05;;
61483;SDS011;47349;55.640;37.692;2023-04-03T00:26:40;13.30;;;9.10;;
61483;SDS011;47349;55.640;37.692;2023-04-03T00:29:21;13.98;;;8.55;;
61483;SDS011;47349;55.640;37.692;2023-04-03T00:32:00;12.93;;;8.73;;
61483;SDS011;47349;55.640;37.692;2023-04-03T00:34:48;17.58;;;9.05;;
61483;SDS011;47349;55.640;37.692;2023-04-03T00:37:32;12.55;;;8.18;;
61483;SDS011;47349;55.640;37.692;2023-04-03T00:40:38;12.90;;;9.18;;
61483;SDS011;47349;55.640;37.692;2023-04-03T00:43:55;24.77;;;11.25;;
61483;SDS011;47349;55.640;37.692;2023-04-03T00:47:56;35.58;;;12.25;;
61483;SDS011;47349;55.640;37.692;2023-04-03T00:51:37;43.30;;;14.15;;
61483;SDS011;47349;55.640;37.692;2023-04-03T00:54:33;30.30;;;11.15;;
61483;SDS011;47349;55.640;37.692;2023-04-03T00:57:22;18.45;;;11.35;;
61483;SDS011;47349;55.640;37.692;2023-04-03T01:00:29;19.13;;;10.43;;
61483;SDS011;47349;55.640;37.692;2023-04-03T01:03:04;25.85;;;11.75;;
61483;SDS011;47349;55.640;37.692;2023-04-03T01:06:50;21.10;;;12.23;;
61483;SDS011;47349;55.640;37.692;2023-04-03T01:10:31;24.08;;;12.30;;
61483;SDS011;47349;55.640;37.692;2023-04-03T01:13:35;22.05;;;12.55;;
61483;SDS011;47349;55.640;37.692;2023-04-03T01:17:03;23.65;;;13.25;;
61483;SDS011;47349;55.640;37.692;2023-04-03T01:26:07;24.25;;;14.07;;
61483;SDS011;47349;55.640;37.692;2023-04-03T01:28:55;17.48;;;12.18;;
61483;SDS011;47349;55.640;37.692;2023-04-03T01:31:48;27.10;;;13.23;;
61483;SDS011;47349;55.640;37.692;2023-04-03T01:34:47;25.33;;;13.23;;
61483;SDS011;47349;55.640;37.692;2023-04-03T01:37:30;22.58;;;14.27;;
61483;SDS011;47349;55.640;37.692;2023-04-03T01:40:25;24.73;;;14.00;;
61483;SDS011;47349;55.640;37.692;2023-04-03T01:43:13;22.52;;;13.20;;
61483;SDS011;47349;55.640;37.692;2023-04-03T01:49:08;22.50;;;13.18;;
61483;SDS011;47349;55.640;37.692;2023-04-03T01:51:53;27.17;;;13.32;;
61483;SDS011;47349;55.640;37.692;2023-04-03T01:54:23;28.02;;;13.88;;
61483;SDS011;47349;55.640;37.692;2023-04-03T01:56:59;27.27;;;13.90;;
61483;SDS011;47349;55.640;37.692;2023-04-03T01:59:42;22.95;;;13.80;;
61483;SDS011;47349;55.640;37.692;2023-04-03T02:02:39;27.45;;;14.65;;
61483;SDS011;47349;55.640;37.692;2023-04-03T02:05:07;28.25;;;14.55;;
61483;SDS011;47349;55.640;37.692;2023-04-03T02:07:51;22.27;;;13.15;;
61483;SDS011;47349;55.640;37.692;2023-04-03T02:10:49;24.00;;;14.52;;
61483;SDS011;47349;55.640;37.692;2023-04-03T02:13:41;24.20;;;13.82;;
61483;SDS011;47349;55.640;37.692;2023-04-03T02:16:25;23.00;;;13.85;;
61483;SDS011;47349;55.640;37.692;2023-04-03T02:19:08;21.98;;;13.38;;
61483;SDS011;47349;55.640;37.692;2023-04-03T02:22:09;22.02;;;14.20;;
61483;SDS011;47349;55.640;37.692;2023-04-03T02:26:26;20.67;;;14.33;;
61483;SDS011;47349;55.640;37.692;2023-04-03T02:33:47;26.45;;;15.77;;
61483;SDS011;47349;55.640;37.692;2023-04-03T02:36:31;28.67;;;15.90;;
61483;SDS011;47349;55.640;37.692;2023-04-03T02:39:19;28.15;;;15.48;;
61483;SDS011;47349;55.640;37.692;2023-04-03T02:42:06;24.00;;;15.63;;
61483;SDS011;47349;55.640;37.692;2023-04-03T02:44:52;26.35;;;14.32;;
61483;SDS011;47349;55.640;37.692;2023-04-03T02:47:32;23.70;;;14.20;;
61483;SDS011;47349;55.640;37.692;2023-04-03T02:50:18;24.20;;;15.35;;
61483;SDS011;47349;55.640;37.692;2023-04-03T02:53:02;30.48;;;15.32;;
61483;SDS011;47349;55.640;37.692;2023-04-03T02:55:37;22.40;;;15.38;;
61483;SDS011;47349;55.640;37.692;2023-04-03T02:58:31;28.52;;;15.32;;
61483;SDS011;47349;55.640;37.692;2023-04-03T03:04:33;25.60;;;14.82;;
61483;SDS011;47349;55.640;37.692;2023-04-03T03:07:10;23.48;;;14.90;;
61483;SDS011;47349;55.640;37.692;2023-04-03T03:10:03;23.83;;;14.57;;
61483;SDS011;47349;55.640;37.692;2023-04-03T03:13:02;24.83;;;14.20;;
61483;SDS011;47349;55.640;37.692;2023-04-03T03:15:53;25.55;;;15.32;;
61483;SDS011;47349;55.640;37.692;2023-04-03T03:18:46;25.05;;;15.48;;
61483;SDS011;47349;55.640;37.692;2023-04-03T03:21:28;25.60;;;15.82;;
61483;SDS011;47349;55.640;37.692;2023-04-03T03:24:17;25.10;;;15.30;;
61483;SDS011;47349;55.640;37.692;2023-04-03T03:27:12;25.42;;;16.15;;
61483;SDS011;47349;55.640;37.692;2023-04-03T03:30:00;27.33;;;16.27;;
61483;SDS011;47349;55.640;37.692;2023-04-03T03:32:50;29.67;;;17.40;;
61483;SDS011;47349;55.640;37.692;2023-04-03T03:36:01;29.48;;;17.08;;
61483;SDS011;47349;55.640;37.692;2023-04-03T03:38:47;27.52;;;16.40;;
61483;SDS011;47349;55.640;37.692;2023-04-03T03:43:06;32.85;;;18.85;;
61483;SDS011;47349;55.640;37.692;2023-04-03T03:47:43;30.48;;;17.48;;
61483;SDS011;47349;55.640;37.692;2023-04-03T03:55:04;33.63;;;16.20;;
61483;SDS011;47349;55.640;37.692;2023-04-03T03:58:45;33.88;;;17.83;;
61483;SDS011;47349;55.640;37.692;2023-04-03T04:02:07;32.03;;;16.83;;
61483;SDS011;47349;55.640;37.692;2023-04-03T04:05:03;28.55;;;17.00;;
61483;SDS011;47349;55.640;37.692;2023-04-03T04:07:54;34.15;;;17.13;;
61483;SDS011;47349;55.640;37.692;2023-04-03T04:10:55;37.03;;;19.13;;
61483;SDS011;47349;55.640;37.692;2023-04-03T04:13:40;30.70;;;16.65;;
61483;SDS011;47349;55.640;37.692;2023-04-03T04:16:35;30.63;;;16.85;;
61483;SDS011;47349;55.640;37.692;2023-04-03T04:19:45;30.17;;;17.13;;
61483;SDS011;47349;55.640;37.692;2023-04-03T04:23:20;31.58;;;15.90;;
61483;SDS011;47349;55.640;37.692;2023-04-03T04:27:23;28.15;;;16.55;;
61483;SDS011;47349;55.640;37.692;2023-04-03T04:41:47;27.33;;;16.52;;
61483;SDS011;47349;55.640;37.692;2023-04-03T04:44:31;28.77;;;15.93;;
61483;SDS011;47349;55.640;37.692;2023-04-03T04:48:13;34.08;;;16.42;;
61483;SDS011;47349;55.640;37.692;2023-04-03T04:51:00;31.00;;;16.77;;
61483;SDS011;47349;55.640;37.692;2023-04-03T04:55:22;32.00;;;16.05;;
61483;SDS011;47349;55.640;37.692;2023-04-03T04:58:47;29.13;;;16.40;;
61483;SDS011;47349;55.640;37.692;2023-04-03T05:01:18;31.50;;;17.58;;
61483;SDS011;47349;55.640;37.692;2023-04-03T05:04:06;29.30;;;16.52;;
61483;SDS011;47349;55.640;37.692;2023-04-03T05:06:52;27.30;;;16.40;;
61483;SDS011;47349;55.640;37.692;2023-04-03T05:09:40;27.02;;;16.35;;
61483;SDS011;47349;55.640;37.692;2023-04-03T05:12:23;39.03;;;16.10;;
61483;SDS011;47349;55.640;37.692;2023-04-03T05:15:28;27.50;;;15.18;;
61483;SDS011;47349;55.640;37.692;2023-04-03T05:18:10;32.63;;;15.02;;
61483;SDS011;47349;55.640;37.692;2023-04-03T05:21:00;30.13;;;14.90;;
61483;SDS011;47349;55.640;37.692;2023-04-03T05:23:41;24.30;;;14.18;;
61483;SDS011;47349;55.640;37.692;2023-04-03T05:26:22;27.58;;;13.82;;
61483;SDS011;47349;55.640;37.692;2023-04-03T05:29:10;33.30;;;14.80;;
61483;SDS011;47349;55.640;37.692;2023-04-03T05:31:40;34.70;;;15.57;;
61483;SDS011;47349;55.640;37.692;2023-04-03T05:34:48;31.13;;;14.00;;
61483;SDS011;47349;55.640;37.692;2023-04-03T05:37:52;26.73;;;13.73;;
61483;SDS011;47349;55.640;37.692;2023-04-03T05:40:38;33.40;;;14.68;;
61483;SDS011;47349;55.640;37.692;2023-04-03T05:43:19;32.45;;;13.38;;
61483;SDS011;47349;55.640;37.692;2023-04-03T05:46:27;30.58;;;13.82;;
61483;SDS011;47349;55.640;37.692;2023-04-03T05:49:27;33.78;;;14.65;;
61483;SDS011;47349;55.640;37.692;2023-04-03T05:55:15;32.97;;;14.55;;
61483;SDS011;47349;55.640;37.692;2023-04-03T05:57:59;30.75;;;14.40;;
61483;SDS011;47349;55.640;37.692;2023-04-03T06:00:43;31.30;;;14.77;;
61483;SDS011;47349;55.640;37.692;2023-04-03T06:03:25;35.67;;;14.95;;
61483;SDS011;47349;55.640;37.692;2023-04-03T06:05:52;30.80;;;15.50;;
61483;SDS011;47349;55.640;37.692;2023-04-03T06:08:20;29.67;;;14.80;;
61483;SDS011;47349;55.640;37.692;2023-04-03T06:10:47;32.13;;;15.65;;
61483;SDS011;47349;55.640;37.692;2023-04-03T06:13:14;29.38;;;15.13;;
61483;SDS011;47349;55.640;37.692;2023-04-03T06:15:41;29.63;;;15.80;;
61483;SDS011;47349;55.640;37.692;2023-04-03T06:18:08;35.63;;;14.35;;
61483;SDS011;47349;55.640;37.692;2023-04-03T06:20:36;32.22;;;14.63;;
61483;SDS011;47349;55.640;37.692;2023-04-03T06:23:04;34.60;;;14.82;;
61483;SDS011;47349;55.640;37.692;2023-04-03T06:25:34;33.00;;;15.05;;
61483;SDS011;47349;55.640;37.692;2023-04-03T06:28:01;33.05;;;14.68;;
61483;SDS011;47349;55.640;37.692;2023-04-03T06:30:28;29.52;;;15.40;;
61483;SDS011;47349;55.640;37.692;2023-04-03T06:32:55;30.02;;;14.10;;
61483;SDS011;47349;55.640;37.692;2023-04-03T06:35:23;33.65;;;15.02;;
61483;SDS011;47349;55.640;37.692;2023-04-03T06:37:50;29.33;;;14.80;;
61483;SDS011;47349;55.640;37.692;2023-04-03T06:40:36;36.47;;;15.00;;
61483;SDS011;47349;55.640;37.692;2023-04-03T06:43:04;30.48;;;15.00;;
61483;SDS011;47349;55.640;37.692;2023-04-03T06:45:50;32.55;;;14.30;;
61483;SDS011;47349;55.640;37.692;2023-04-03T06:48:17;41.95;;;19.02;;
61483;SDS011;47349;55.640;37.692;2023-04-03T06:50:45;30.65;;;15.18;;
61483;SDS011;47349;55.640;37.692;2023-04-03T06:53:12;31.48;;;15.90;;
61483;SDS011;47349;55.640;37.692;2023-04-03T06:55:39;28.17;;;15.60;;
61483;SDS011;47349;55.640;37.692;2023-04-03T06:58:14;31.45;;;15.30;;
61483;SDS011;47349;55.640;37.692;2023-04-03T07:00:42;37.65;;;16.02;;
61483;SDS011;47349;55.640;37.692;2023-04-03T07:03:09;30.95;;;15.13;;
61483;SDS011;47349;55.640;37.692;2023-04-03T07:05:36;34.95;;;14.93;;
61483;SDS011;47349;55.640;37.692;2023-04-03T07:08:03;33.00;;;15.27;;
61483;SDS011;47349;55.640;37.692;2023-04-03T07:10:33;25.95;;;14.40;;
61483;SDS011;47349;55.640;37.692;2023-04-03T07:13:00;28.63;;;14.32;;
61483;SDS011;47349;55.640;37.692;2023-04-03T07:15:28;28.90;;;15.38;;
61483;SDS011;47349;55.640;37.692;2023-04-03T07:17:55;29.45;;;15.43;;
61483;SDS011;47349;55.640;37.692;2023-04-03T07:20:22;32.08;;;16.10;;
61483;SDS011;47349;55.640;37.692;2023-04-03T07:22:51;39.53;;;15.15;;
61483;SDS011;47349;55.640;37.692;2023-04-03T07:25:18;29.27;;;15.30;;
61483;SDS011;47349;55.640;37.692;2023-04-03T07:27:46;45.17;;;16.70;;
61483;SDS011;47349;55.640;37.692;2023-04-03T07:30:14;28.08;;;14.80;;
61483;SDS011;47349;55.640;37.692;2023-04-03T07:32:41;32.33;;;16.23;;
61483;SDS011;47349;55.640;37.692;2023-04-03T07:35:08;27.42;;;15.75;;
61483;SDS011;47349;55.640;37.692;2023-04-03T07:37:36;25.75;;;14.27;;
61483;SDS011;47349;55.640;37.692;2023-04-03T07:40:03;23.27;;;15.27;;
61483;SDS011;47349;55.640;37.692;2023-04-03T07:42:30;30.38;;;15.50;;
61483;SDS011;47349;55.640;37.692;2023-04-03T07:44:58;35.92;;;16.95;;
61483;SDS011;47349;55.640;37.692;2023-04-03T07:47:25;32.53;;;15.65;;
61483;SDS011;47349;55.640;37.692;2023-04-03T07:49:52;31.27;;;15.30;;
61483;SDS011;47349;55.640;37.692;2023-04-03T07:52:19;35.97;;;15.32;;
61483;SDS011;47349;55.640;37.692;2023-04-03T07:54:46;32.13;;;16.17;;
61483;SDS011;47349;55.640;37.692;2023-04-03T07:57:17;37.35;;;17.27;;
61483;SDS011;47349;55.640;37.692;2023-04-03T07:59:44;36.95;;;16.75;;
61483;SDS011;47349;55.640;37.692;2023-04-03T08:02:11;32.78;;;15.80;;
61483;SDS011;47349;55.640;37.692;2023-04-03T08:04:39;37.28;;;17.85;;
61483;SDS011;47349;55.640;37.692;2023-04-03T08:07:06;41.55;;;18.42;;
61483;SDS011;47349;55.640;37.692;2023-04-03T08:09:33;32.45;;;18.80;;
61483;SDS011;47349;55.640;37.692;2023-04-03T08:12:00;34.92;;;17.85;;
61483;SDS011;47349;55.640;37.692;2023-04-03T08:14:29;35.90;;;18.17;;
61483;SDS011;47349;55.640;37.692;2023-04-03T08:16:57;32.85;;;16.65;;
61483;SDS011;47349;55.640;37.692;2023-04-03T08:19:25;31.05;;;17.75;;
61483;SDS011;47349;55.640;37.692;2023-04-03T08:21:53;31.77;;;17.70;;
61483;SDS011;47349;55.640;37.692;2023-04-03T08:24:21;29.75;;;18.20;;
61483;SDS011;47349;55.640;37.692;2023-04-03T08:26:48;31.55;;;18.50;;
61483;SDS011;47349;55.640;37.692;2023-04-03T08:29:15;35.38;;;19.00;;
61483;SDS011;47349;55.640;37.692;2023-04-03T08:31:42;30.23;;;17.98;;
61483;SDS011;47349;55.640;37.692;2023-04-03T08:34:09;39.17;;;18.65;;
61483;SDS011;47349;55.640;37.692;2023-04-03T08:36:37;41.13;;;18.95;;
61483;SDS011;47349;55.640;37.692;2023-04-03T08:39:05;33.10;;;19.77;;
61483;SDS011;47349;55.640;37.692;2023-04-03T08:41:34;34.20;;;18.38;;
61483;SDS011;47349;55.640;37.692;2023-04-03T08:47:02;33.90;;;20.10;;
61483;SDS011;47349;55.640;37.692;2023-04-03T08:52:42;34.55;;;18.00;;
61483;SDS011;47349;55.640;37.692;2023-04-03T08:55:32;25.83;;;16.65;;
61483;SDS011;47349;55.640;37.692;2023-04-03T08:58:01;29.75;;;17.75;;
61483;SDS011;47349;55.640;37.692;2023-04-03T09:00:34;33.60;;;18.40;;
61483;SDS011;47349;55.640;37.692;2023-04-03T09:03:14;30.95;;;16.83;;
61483;SDS011;47349;55.640;37.692;2023-04-03T09:10:52;30.95;;;16.50;;
61483;SDS011;47349;55.640;37.692;2023-04-03T09:13:54;27.23;;;16.40;;
61483;SDS011;47349;55.640;37.692;2023-04-03T09:22:22;23.60;;;15.82;;
61483;SDS011;47349;55.640;37.692;2023-04-03T09:28:00;24.30;;;16.02;;
61483;SDS011;47349;55.640;37.692;2023-04-03T09:30:36;23.23;;;15.10;;
61483;SDS011;47349;55.640;37.692;2023-04-03T09:33:05;25.35;;;15.93;;
61483;SDS011;47349;55.640;37.692;2023-04-03T09:35:35;22.33;;;15.35;;
61483;SDS011;47349;55.640;37.692;2023-04-03T09:38:15;24.95;;;15.82;;
61483;SDS011;47349;55.640;37.692;2023-04-03T09:40:46;21.75;;;14.85;;
61483;SDS011;47349;55.640;37.692;2023-04-03T09:45:43;26.05;;;17.00;;
61483;SDS011;47349;55.640;37.692;2023-04-03T09:53:33;22.67;;;16.33;;
61483;SDS011;47349;55.640;37.692;2023-04-03T09:56:01;22.58;;;15.57;;
61483;SDS011;47349;55.640;37.692;2023-04-03T09:58:31;25.60;;;15.90;;
61483;SDS011;47349;55.640;37.692;2023-04-03T10:01:26;23.80;;;16.17;;
61483;SDS011;47349;55.640;37.692;2023-04-03T10:12:05;25.38;;;15.25;;
61483;SDS011;47349;55.640;37.692;2023-04-03T10:17:42;20.83;;;13.75;;
61483;SDS011;47349;55.640;37.692;2023-04-03T10:20:44;20.38;;;13.63;;
61483;SDS011;47349;55.640;37.692;2023-04-03T10:23:33;27.48;;;14.18;;
61483;SDS011;47349;55.640;37.692;2023-04-03T10:26:39;25.67;;;13.20;;
61483;SDS011;47349;55.640;37.692;2023-04-03T10:43:42;26.85;;;14.00;;
61483;SDS011;47349;55.640;37.692;2023-04-03T10:56:31;24.27;;;13.35;;
61483;SDS011;47349;55.640;37.692;2023-04-03T11:00:22;18.77;;;12.82;;
61483;SDS011;47349;55.640;37.692;2023-04-03T11:03:11;25.52;;;14.73;;
61483;SDS011;47349;55.640;37.692;2023-04-03T11:06:25;22.20;;;13.73;;
61483;SDS011;47349;55.640;37.692;2023-04-03T11:09:34;24.33;;;13.48;;
61483;SDS011;47349;55.640;37.692;2023-04-03T11:12:31;21.60;;;12.93;;
61483;SDS011;47349;55.640;37.692;2023-04-03T11:15:21;20.23;;;13.80;;
61483;SDS011;47349;55.640;37.692;2023-04-03T11:18:14;24.58;;;13.90;;
61483;SDS011;47349;55.640;37.692;2023-04-03T11:21:10;20.88;;;13.88;;
61483;SDS011;47349;55.640;37.692;2023-04-03T11:24:27;22.38;;;12.38;;
61483;SDS011;47349;55.640;37.692;2023-04-03T11:27:24;25.83;;;14.00;;
61483;SDS011;47349;55.640;37.692;2023-04-03T11:33:32;21.33;;;13.00;;
61483;SDS011;47349;55.640;37.692;2023-04-03T11:36:30;20.67;;;13.25;;
61483;SDS011;47349;55.640;37.692;2023-04-03T11:39:50;21.83;;;12.55;;
61483;SDS011;47349;55.640;37.692;2023-04-03T11:42:34;20.15;;;12.25;;
61483;SDS011;47349;55.640;37.692;2023-04-03T11:48:56;22.75;;;13.68;;
61483;SDS011;47349;55.640;37.692;2023-04-03T11:51:42;24.65;;;11.25;;
61483;SDS011;47349;55.640;37.692;2023-04-03T11:54:42;20.33;;;11.48;;
61483;SDS011;47349;55.640;37.692;2023-04-03T11:57:46;19.75;;;11.63;;
61483;SDS011;47349;55.640;37.692;2023-04-03T12:00:59;16.63;;;10.15;;
61483;SDS011;47349;55.640;37.692;2023-04-03T12:09:26;14.50;;;9.77;;
61483;SDS011;47349;55.640;37.692;2023-04-03T12:12:38;15.85;;;8.50;;
61483;SDS011;47349;55.640;37.692;2023-04-03T12:15:49;15.10;;;8.48;;
61483;SDS011;47349;55.640;37.692;2023-04-03T12:30:13;11.55;;;7.55;;
61483;SDS011;47349;55.640;37.692;2023-04-03T12:34:11;15.15;;;7.70;;
61483;SDS011;47349;55.640;37.692;2023-04-03T12:47:22;17.67;;;7.93;;
61483;SDS011;47349;55.640;37.692;2023-04-03T12:51:39;18.83;;;7.68;;
61483;SDS011;47349;55.640;37.692;2023-04-03T13:00:36;15.73;;;7.18;;
61483;SDS011;47349;55.640;37.692;2023-04-03T13:05:59;8.93;;;6.40;;
61483;SDS011;47349;55.640;37.692;2023-04-03T13:15:26;14.60;;;7.43;;
61483;SDS011;47349;55.640;37.692;2023-04-03T13:19:33;9.43;;;6.65;;
61483;SDS011;47349;55.640;37.692;2023-04-03T13:24:47;12.10;;;7.47;;
61483;SDS011;47349;55.640;37.692;2023-04-03T14:01:19;19.00;;;7.80;;
61483;SDS011;47349;55.640;37.692;2023-04-03T14:04:32;13.65;;;8.88;;
61483;SDS011;47349;55.640;37.692;2023-04-03T14:08:48;15.25;;;9.43;;
61483;SDS011;47349;55.640;37.692;2023-04-03T14:23:15;13.27;;;8.80;;
61483;SDS011;47349;55.640;37.692;2023-04-03T14:48:49;15.52;;;8.18;;
61483;SDS011;47349;55.640;37.692;2023-04-03T14:52:47;14.25;;;8.05;;
61483;SDS011;47349;55.640;37.692;2023-04-03T14:56:17;19.10;;;8.50;;
61483;SDS011;47349;55.640;37.692;2023-04-03T15:37:21;18.13;;;9.30;;
61483;SDS011;47349;55.640;37.692;2023-04-03T15:42:07;20.83;;;10.07;;
61483;SDS011;47349;55.640;37.692;2023-04-03T15:46:48;17.08;;;9.77;;
61483;SDS011;47349;55.640;37.692;2023-04-03T15:53:35;18.90;;;10.02;;
61483;SDS011;47349;55.640;37.692;2023-04-03T15:56:53;15.02;;;8.77;;
61483;SDS011;47349;55.640;37.692;2023-04-03T16:00:42;20.77;;;8.85;;
61483;SDS011;47349;55.640;37.692;2023-04-03T16:04:43;14.52;;;8.70;;
61483;SDS011;47349;55.640;37.692;2023-04-03T16:07:37;17.83;;;9.18;;
61483;SDS011;47349;55.640;37.692;2023-04-03T16:11:57;20.90;;;9.10;;
61483;SDS011;47349;55.640;37.692;2023-04-03T16:14:47;17.45;;;9.70;;
61483;SDS011;47349;55.640;37.692;2023-04-03T16:18:48;19.77;;;9.25;;
61483;SDS011;47349;55.640;37.692;2023-04-03T16:22:58;18.70;;;7.95;;
61483;SDS011;47349;55.640;37.692;2023-04-03T16:26:06;19.52;;;8.48;;
61483;SDS011;47349;55.640;37.692;2023-04-03T16:30:47;16.52;;;8.57;;
61483;SDS011;47349;55.640;37.692;2023-04-03T16:34:53;16.92;;;8.95;;
61483;SDS011;47349;55.640;37.692;2023-04-03T16:37:41;14.02;;;8.15;;
61483;SDS011;47349;55.640;37.692;2023-04-03T16:40:26;18.08;;;8.80;;
61483;SDS011;47349;55.640;37.692;2023-04-03T16:43:24;13.23;;;7.88;;
61483;SDS011;47349;55.640;37.692;2023-04-03T16:46:36;17.17;;;9.00;;
61483;SDS011;47349;55.640;37.692;2023-04-03T16:49:20;18.42;;;8.93;;
61483;SDS011;47349;55.640;37.692;2023-04-03T16:51:48;12.65;;;8.50;;
61483;SDS011;47349;55.640;37.692;2023-04-03T16:54:15;16.83;;;8.38;;
61483;SDS011;47349;55.640;37.692;2023-04-03T16:56:42;18.30;;;9.20;;
61483;SDS011;47349;55.640;37.692;2023-04-03T16:59:10;21.38;;;9.70;;
61483;SDS011;47349;55.640;37.692;2023-04-03T17:01:37;17.25;;;10.02;;
61483;SDS011;47349;55.640;37.692;2023-04-03T17:07:26;19.65;;;10.05;;
61483;SDS011;47349;55.640;37.692;2023-04-03T17:09:54;29.30;;;11.30;;
61483;SDS011;47349;55.640;37.692;2023-04-03T17:12:21;16.65;;;10.93;;
61483;SDS011;47349;55.640;37.692;2023-04-03T17:14:48;17.20;;;10.40;;
61483;SDS011;47349;55.640;37.692;2023-04-03T17:17:18;19.25;;;11.75;;
61483;SDS011;47349;55.640;37.692;2023-04-03T17:20:00;22.20;;;11.73;;
61483;SDS011;47349;55.640;37.692;2023-04-03T17:22:38;19.67;;;11.32;;
61483;SDS011;47349;55.640;37.692;2023-04-03T17:25:06;24.17;;;11.65;;
61483;SDS011;47349;55.640;37.692;2023-04-03T17:27:33;18.63;;;11.38;;
61483;SDS011;47349;55.640;37.692;2023-04-03T17:30:01;16.55;;;10.40;;
61483;SDS011;47349;55.640;37.692;2023-04-03T17:32:28;18.45;;;10.85;;
61483;SDS011;47349;55.640;37.692;2023-04-03T17:34:56;18.70;;;10.82;;
61483;SDS011;47349;55.640;37.692;2023-04-03T17:37:23;21.70;;;11.25;;
61483;SDS011;47349;55.640;37.692;2023-04-03T17:39:50;15.82;;;10.23;;
61483;SDS011;47349;55.640;37.692;2023-04-03T17:42:17;15.57;;;10.90;;
61483;SDS011;47349;55.640;37.692;2023-04-03T17:44:44;19.85;;;10.07;;
61483;SDS011;47349;55.640;37.692;2023-04-03T17:47:12;13.00;;;9.20;;
61483;SDS011;47349;55.640;37.692;2023-04-03T17:49:39;17.40;;;9.93;;
61483;SDS011;47349;55.640;37.692;2023-04-03T17:52:07;14.52;;;9.60;;
61483;SDS011;47349;55.640;37.692;2023-04-03T17:54:34;12.27;;;9.80;;
61483;SDS011;47349;55.640;37.692;2023-04-03T17:57:01;15.25;;;8.90;;
61483;SDS011;47349;55.640;37.692;2023-04-03T17:59:30;11.93;;;8.45;;
61483;SDS011;47349;55.640;37.692;2023-04-03T18:01:57;18.60;;;9.32;;
61483;SDS011;47349;55.640;37.692;2023-04-03T18:04:24;14.02;;;9.02;;
61483;SDS011;47349;55.640;37.692;2023-04-03T18:06:52;13.18;;;9.70;;
61483;SDS011;47349;55.640;37.692;2023-04-03T18:09:23;16.48;;;9.55;;
61483;SDS011;47349;55.640;37.692;2023-04-03T18:11:52;12.98;;;9.48;;
61483;SDS011;47349;55.640;37.692;2023-04-03T18:14:23;16.63;;;10.20;;
61483;SDS011;47349;55.640;37.692;2023-04-03T18:16:53;12.07;;;9.70;;
61483;SDS011;47349;55.640;37.692;2023-04-03T18:19:23;14.43;;;9.38;;
61483;SDS011;47349;55.640;37.692;2023-04-03T18:22:14;12.40;;;8.25;;
61483;SDS011;47349;55.640;37.692;2023-04-03T18:24:44;15.68;;;9.25;;
61483;SDS011;47349;55.640;37.692;2023-04-03T18:27:13;13.38;;;8.45;;
61483;SDS011;47349;55.640;37.692;2023-04-03T18:29:44;12.98;;;9.23;;
61483;SDS011;47349;55.640;37.692;2023-04-03T18:32:15;14.68;;;8.32;;
61483;SDS011;47349;55.640;37.692;2023-04-03T18:34:45;16.17;;;9.38;;
61483;SDS011;47349;55.640;37.692;2023-04-03T18:37:12;17.60;;;9.50;;
61483;SDS011;47349;55.640;37.692;2023-04-03T18:39:41;18.42;;;10.02;;
61483;SDS011;47349;55.640;37.692;2023-04-03T18:42:10;13.75;;;9.68;;
61483;SDS011;47349;55.640;37.692;2023-04-03T18:44:42;15.32;;;8.88;;
61483;SDS011;47349;55.640;37.692;2023-04-03T18:47:12;13.90;;;9.82;;
61483;SDS011;47349;55.640;37.692;2023-04-03T18:49:39;15.10;;;9.98;;
61483;SDS011;47349;55.640;37.692;2023-04-03T18:52:09;15.80;;;9.80;;
61483;SDS011;47349;55.640;37.692;2023-04-03T18:54:37;18.08;;;10.35;;
61483;SDS011;47349;55.640;37.692;2023-04-03T18:57:04;14.68;;;10.32;;
61483;SDS011;47349;55.640;37.692;2023-04-03T18:59:31;15.73;;;10.73;;
61483;SDS011;47349;55.640;37.692;2023-04-03T19:01:59;16.60;;;10.73;;
61483;SDS011;47349;55.640;37.692;2023-04-03T19:04:27;17.98;;;10.55;;
61483;SDS011;47349;55.640;37.692;2023-04-03T19:06:55;16.85;;;11.00;;
61483;SDS011;47349;55.640;37.692;2023-04-03T19:09:22;19.42;;;11.93;;
61483;SDS011;47349;55.640;37.692;2023-04-03T19:11:51;20.83;;;12.18;;
61483;SDS011;47349;55.640;37.692;2023-04-03T19:14:18;19.60;;;13.20;;
61483;SDS011;47349;55.640;37.692;2023-04-03T19:16:46;18.90;;;12.40;;
61483;SDS011;47349;55.640;37.692;2023-04-03T19:19:13;21.00;;;13.30;;
61483;SDS011;47349;55.640;37.692;2023-04-03T19:21:40;19.73;;;12.88;;
61483;SDS011;47349;55.640;37.692;2023-04-03T19:24:08;21.70;;;13.90;;
61483;SDS011;47349;55.640;37.692;2023-04-03T19:26:37;23.95;;;14.68;;
61483;SDS011;47349;55.640;37.692;2023-04-03T19:29:05;22.73;;;13.73;;
61483;SDS011;47349;55.640;37.692;2023-04-03T19:31:32;26.52;;;15.07;;
61483;SDS011;47349;55.640;37.692;2023-04-03T19:34:00;19.95;;;14.57;;
61483;SDS011;47349;55.640;37.692;2023-04-03T19:36:29;23.77;;;14.45;;
61483;SDS011;47349;55.640;37.692;2023-04-03T19:38:57;22.05;;;13.70;;
61483;SDS011;47349;55.640;37.692;2023-04-03T19:41:24;20.08;;;14.48;;
61483;SDS011;47349;55.640;37.692;2023-04-03T19:43:54;20.73;;;14.48;;
61483;SDS011;47349;55.640;37.692;2023-04-03T19:46:22;23.48;;;14.45;;
61483;SDS011;47349;55.640;37.692;2023-04-03T19:48:51;21.42;;;13.75;;
61483;SDS011;47349;55.640;37.692;2023-04-03T19:51:18;23.30;;;14.10;;
61483;SDS011;47349;55.640;37.692;2023-04-03T19:53:45;20.95;;;14.65;;
61483;SDS011;47349;55.640;37.692;2023-04-03T19:56:14;21.55;;;14.05;;
61483;SDS011;47349;55.640;37.692;2023-04-03T19:58:46;23.60;;;14.98;;
61483;SDS011;47349;55.640;37.692;2023-04-03T20:01:20;20.58;;;15.05;;
61483;SDS011;47349;55.640;37.692;2023-04-03T20:03:50;22.50;;;15.13;;
61483;SDS011;47349;55.640;37.692;2023-04-03T20:06:17;23.50;;;17.70;;
61483;SDS011;47349;55.640;37.692;2023-04-03T20:08:45;26.60;;;17.70;;
61483;SDS011;47349;55.640;37.692;2023-04-03T20:11:12;25.67;;;18.00;;
61483;SDS011;47349;55.640;37.692;2023-04-03T20:13:39;23.60;;;16.13;;
61483;SDS011;47349;55.640;37.692;2023-04-03T20:18:34;23.27;;;15.98;;
61483;SDS011;47349;55.640;37.692;2023-04-03T20:21:02;20.67;;;14.60;;
61483;SDS011;47349;55.640;37.692;2023-04-03T20:23:30;23.52;;;16.08;;
61483;SDS011;47349;55.640;37.692;2023-04-03T20:25:58;24.35;;;16.10;;
61483;SDS011;47349;55.640;37.692;2023-04-03T20:28:40;24.75;;;16.48;;
61483;SDS011;47349;55.640;37.692;2023-04-03T20:31:07;24.45;;;16.70;;